createdAt,value
2023-01-07T00:00:12.540Z,8.25
2023-01-07T00:02:40.906Z,8.22
2023-01-07T00:05:10.429Z,7.94
2023-01-07T00:07:41.592Z,8.10
2023-01-07T00:10:12.906Z,8.21
2023-01-07T00:12:41.305Z,7.49
2023-01-07T00:15:11.167Z,8.08
2023-01-07T00:17:39.661Z,8.37
2023-01-07T00:20:09.483Z,7.57
2023-01-07T00:22:38.062Z,8.26
2023-01-07T00:25:07.764Z,7.73
2023-01-07T00:27:37.560Z,8.29
2023-01-07T00:30:07.840Z,8.40
2023-01-07T00:32:54.742Z,8.34
2023-01-07T00:35:23.891Z,7.23
2023-01-07T00:37:54.263Z,7.94
2023-01-07T00:40:23.471Z,7.64
2023-01-07T00:43:01.462Z,8.06
2023-01-07T00:45:32.998Z,8.03
2023-01-07T00:48:03.322Z,8.25
2023-01-07T00:50:36.286Z,8.27
2023-01-07T00:53:05.941Z,7.86
2023-01-07T00:55:36.108Z,7.63
2023-01-07T00:58:06.776Z,7.44
2023-01-07T01:00:35.888Z,7.56
2023-01-07T01:03:04.723Z,7.80
2023-01-07T01:05:33.191Z,8.30
2023-01-07T01:08:02.313Z,8.48
2023-01-07T01:10:32.470Z,8.57
2023-01-07T01:13:01.431Z,7.85
2023-01-07T01:15:31.798Z,8.36
2023-01-07T01:18:00.351Z,8.19
2023-01-07T01:20:28.838Z,8.66
2023-01-07T01:22:57.317Z,8.28
2023-01-07T01:25:27.917Z,8.55
2023-01-07T01:27:59.600Z,8.03
2023-01-07T01:30:28.714Z,8.18
2023-01-07T01:33:01.415Z,8.09
2023-01-07T01:35:32.909Z,8.57
2023-01-07T01:38:02.155Z,7.70
2023-01-07T01:40:33.209Z,8.31
2023-01-07T01:43:02.127Z,7.87
2023-01-07T01:45:34.244Z,7.28
2023-01-07T01:48:10.910Z,7.84
2023-01-07T01:50:45.714Z,7.78
2023-01-07T01:53:21.004Z,7.40
2023-01-07T01:56:04.340Z,7.17
2023-01-07T01:58:39.832Z,7.34
2023-01-07T02:01:09.030Z,7.92
2023-01-07T02:03:40.260Z,7.73
2023-01-07T02:06:18.284Z,7.71
2023-01-07T02:08:48.710Z,7.39
2023-01-07T02:11:38.249Z,7.59
2023-01-07T02:14:33.490Z,7.29
2023-01-07T02:17:09.869Z,6.70
2023-01-07T02:20:37.404Z,7.35
2023-01-07T02:24:09.715Z,7.63
2023-01-07T02:27:52.416Z,7.53
2023-01-07T02:31:07.878Z,7.54
2023-01-07T02:33:52.275Z,6.74
2023-01-07T02:36:38.953Z,7.20
2023-01-07T02:39:23.572Z,7.46
2023-01-07T02:42:00.033Z,6.77
2023-01-07T02:44:44.031Z,7.60
2023-01-07T02:47:22.130Z,7.00
2023-01-07T02:49:53.741Z,7.52
2023-01-07T02:52:26.433Z,6.96
2023-01-07T02:55:08.210Z,7.35
2023-01-07T02:58:20.844Z,7.51
2023-01-07T03:01:49.046Z,7.38
2023-01-07T03:04:44.746Z,7.34
2023-01-07T03:07:28.874Z,7.41
2023-01-07T03:10:07.248Z,7.17
2023-01-07T03:12:43.413Z,7.41
2023-01-07T03:15:21.061Z,7.32
2023-01-07T03:18:03.364Z,7.60
2023-01-07T03:20:39.555Z,7.54
2023-01-07T03:23:14.572Z,7.61
2023-01-07T03:25:49.843Z,7.19
2023-01-07T03:28:24.618Z,7.49
2023-01-07T03:30:56.843Z,7.42
2023-01-07T03:33:33.701Z,7.33
2023-01-07T03:36:06.983Z,7.35
2023-01-07T03:38:40.322Z,7.09
2023-01-07T03:41:08.785Z,7.28
2023-01-07T03:43:36.350Z,7.10
2023-01-07T03:46:04.763Z,7.37
2023-01-07T03:48:33.217Z,7.17
2023-01-07T03:51:01.645Z,7.38
2023-01-07T03:53:30.807Z,6.99
2023-01-07T03:56:01.116Z,7.45
2023-01-07T03:58:32.480Z,7.16
2023-01-07T04:01:01.538Z,7.33
2023-01-07T04:03:31.740Z,6.67
2023-01-07T04:06:00.302Z,7.03
2023-01-07T04:08:29.379Z,7.29
2023-01-07T04:10:59.247Z,6.56
2023-01-07T04:13:30.606Z,7.43
2023-01-07T04:15:59.642Z,7.39
2023-01-07T04:18:28.972Z,7.24
2023-01-07T04:20:57.440Z,7.30
2023-01-07T04:23:26.861Z,7.44
2023-01-07T04:25:56.934Z,7.49
2023-01-07T04:28:27.857Z,7.10
2023-01-07T04:31:01.755Z,7.37
2023-01-07T04:33:31.737Z,7.26
2023-01-07T04:36:01.153Z,6.89
2023-01-07T04:38:30.209Z,6.87
2023-01-07T04:40:58.797Z,6.84
2023-01-07T04:43:27.236Z,7.15
2023-01-07T04:45:56.635Z,6.97
2023-01-07T04:48:29.185Z,6.59
2023-01-07T04:50:58.252Z,6.63
2023-01-07T04:53:28.305Z,6.98
2023-01-07T04:55:57.777Z,7.25
2023-01-07T04:58:26.843Z,6.58
2023-01-07T05:00:58.612Z,7.29
2023-01-07T05:03:31.674Z,7.26
2023-01-07T05:06:02.939Z,7.32
2023-01-07T05:08:31.866Z,7.29
2023-01-07T05:11:02.128Z,7.60
2023-01-07T05:13:32.342Z,7.09
2023-01-07T05:16:05.951Z,6.97
2023-01-07T05:18:37.234Z,7.81
2023-01-07T05:21:08.261Z,7.78
2023-01-07T05:23:38.043Z,6.84
2023-01-07T05:26:07.400Z,7.62
2023-01-07T05:28:36.461Z,7.65
2023-01-07T05:31:06.569Z,7.79
2023-01-07T05:33:38.166Z,7.81
2023-01-07T05:36:07.455Z,7.79
2023-01-07T05:38:36.175Z,7.93
2023-01-07T05:41:05.016Z,7.99
2023-01-07T05:43:33.717Z,7.94
2023-01-07T05:46:02.269Z,7.81
2023-01-07T05:48:30.852Z,7.33
2023-01-07T05:51:00.545Z,7.80
2023-01-07T05:53:29.070Z,7.63
2023-01-07T05:55:58.011Z,7.89
2023-01-07T05:58:27.424Z,7.78
2023-01-07T06:00:56.566Z,7.55
2023-01-07T06:03:26.060Z,7.95
2023-01-07T06:05:54.611Z,7.34
2023-01-07T06:08:24.435Z,7.68
2023-01-07T06:10:52.841Z,7.57
2023-01-07T06:13:21.202Z,7.51
2023-01-07T06:15:49.751Z,7.57
2023-01-07T06:18:18.208Z,7.75
2023-01-07T06:20:46.561Z,7.80
2023-01-07T06:23:14.870Z,7.86
2023-01-07T06:25:44.702Z,7.51
2023-01-07T06:28:13.141Z,7.89
2023-01-07T06:30:41.452Z,7.71
2023-01-07T06:33:10.018Z,7.77
2023-01-07T06:35:38.397Z,7.91
2023-01-07T06:38:06.949Z,7.76
2023-01-07T06:40:35.817Z,7.68
2023-01-07T06:43:05.723Z,7.91
2023-01-07T06:45:35.438Z,7.98
2023-01-07T06:48:04.333Z,7.94
2023-01-07T06:50:32.980Z,8.03
2023-01-07T06:53:01.350Z,8.02
2023-01-07T06:55:29.867Z,7.89
2023-01-07T06:57:58.216Z,7.78
2023-01-07T07:00:28.251Z,7.89
2023-01-07T07:02:56.940Z,7.92
2023-01-07T07:05:25.398Z,7.85
2023-01-07T07:07:53.743Z,7.66
2023-01-07T07:10:22.153Z,7.70
2023-01-07T07:12:50.517Z,7.64
2023-01-07T07:15:21.356Z,7.57
2023-01-07T07:17:53.699Z,7.67
2023-01-07T07:20:22.414Z,7.76
2023-01-07T07:22:50.980Z,7.70
2023-01-07T07:25:21.601Z,7.89
2023-01-07T07:27:50.083Z,7.86
2023-01-07T07:30:19.645Z,7.43
2023-01-07T07:32:48.088Z,7.58
2023-01-07T07:35:18.075Z,7.46
2023-01-07T07:37:46.420Z,7.47
2023-01-07T07:40:15.101Z,7.62
2023-01-07T07:43:11.455Z,7.45
2023-01-07T07:45:31.939Z,7.12
2023-01-07T07:48:00.419Z,7.49
2023-01-07T07:50:30.231Z,7.51
2023-01-07T07:52:58.697Z,7.20
2023-01-07T07:55:27.209Z,7.23
2023-01-07T07:57:56.388Z,7.26
2023-01-07T08:00:25.445Z,7.25
2023-01-07T08:02:54.194Z,7.23
2023-01-07T08:05:22.535Z,7.07
2023-01-07T08:07:52.946Z,7.21
2023-01-07T08:10:21.855Z,7.35
2023-01-07T08:12:50.776Z,7.55
2023-01-07T08:15:19.891Z,7.86
2023-01-07T08:17:49.293Z,7.66
2023-01-07T08:20:19.402Z,7.34
2023-01-07T08:22:49.351Z,7.49
2023-01-07T08:25:19.765Z,7.71
2023-01-07T08:27:48.254Z,7.58
2023-01-07T08:30:20.086Z,7.70
2023-01-07T08:32:49.140Z,7.93
2023-01-07T08:35:18.247Z,7.89
2023-01-07T08:37:47.024Z,7.92
2023-01-07T08:40:15.766Z,7.58
2023-01-07T08:42:45.491Z,7.77
2023-01-07T08:45:13.974Z,8.17
2023-01-07T08:47:42.386Z,8.28
2023-01-07T08:50:11.511Z,7.49
2023-01-07T08:52:41.080Z,7.97
2023-01-07T08:55:10.336Z,8.02
2023-01-07T08:57:40.794Z,7.91
2023-01-07T09:00:14.998Z,8.11
2023-01-07T09:02:44.589Z,8.14
2023-01-07T09:05:13.476Z,8.29
2023-01-07T09:07:42.139Z,7.90
2023-01-07T09:10:12.536Z,8.02
2023-01-07T09:12:41.338Z,7.97
2023-01-07T09:15:13.523Z,8.16
2023-01-07T09:17:47.112Z,8.25
2023-01-07T09:20:15.572Z,8.37
2023-01-07T09:22:44.028Z,8.12
2023-01-07T09:25:12.740Z,8.59
2023-01-07T09:27:42.525Z,8.42
2023-01-07T09:30:13.738Z,8.56
2023-01-07T09:32:43.810Z,8.16
2023-01-07T09:35:13.001Z,8.39
2023-01-07T09:37:41.684Z,8.73
2023-01-07T09:40:20.338Z,8.75
2023-01-07T09:42:58.971Z,8.96
2023-01-07T09:45:35.725Z,8.98
2023-01-07T09:48:12.799Z,8.67
2023-01-07T09:50:51.193Z,8.45
2023-01-07T09:53:24.799Z,8.56
2023-01-07T09:56:11.689Z,8.51
2023-01-07T09:58:46.253Z,8.72
2023-01-07T10:01:29.290Z,8.52
2023-01-07T10:04:15.962Z,8.49
2023-01-07T10:06:53.679Z,8.18
2023-01-07T10:09:37.203Z,8.02
2023-01-07T10:12:18.092Z,8.01
2023-01-07T10:15:12.588Z,8.01
2023-01-07T10:18:16.904Z,8.08
2023-01-07T10:20:52.082Z,8.10
2023-01-07T10:23:26.019Z,8.13
2023-01-07T10:25:57.151Z,8.08
2023-01-07T10:28:36.020Z,7.97
2023-01-07T10:31:07.137Z,8.01
2023-01-07T10:33:37.091Z,8.24
2023-01-07T10:36:19.852Z,8.06
2023-01-07T10:38:58.574Z,7.86
2023-01-07T10:41:39.406Z,8.14
2023-01-07T10:45:10.879Z,8.48
2023-01-07T10:48:11.916Z,7.72
2023-01-07T10:51:01.195Z,8.58
2023-01-07T10:53:43.880Z,8.59
2023-01-07T10:56:24.687Z,8.45
2023-01-07T10:58:53.747Z,8.45
2023-01-07T11:01:28.256Z,8.32
2023-01-07T11:36:09.846Z,9.32
2023-01-07T11:38:40.218Z,9.12
2023-01-07T11:41:22.101Z,9.60
2023-01-07T11:43:52.612Z,9.35
2023-01-07T11:46:26.012Z,9.03
2023-01-07T11:48:58.235Z,9.24
2023-01-07T11:51:39.311Z,9.13
2023-01-07T11:54:20.593Z,9.14
2023-01-07T11:56:49.067Z,9.21
2023-01-07T11:59:31.770Z,9.22
2023-01-07T12:02:00.977Z,9.06
2023-01-07T12:04:32.629Z,8.78
2023-01-07T12:07:07.615Z,9.20
2023-01-07T12:09:39.192Z,9.39
2023-01-07T12:12:36.950Z,9.21
2023-01-07T12:15:18.264Z,9.41
2023-01-07T12:17:50.434Z,9.38
2023-01-07T12:20:40.180Z,9.36
2023-01-07T12:23:26.472Z,9.43
2023-01-07T12:26:03.817Z,9.45
2023-01-07T12:28:55.148Z,9.62
2023-01-07T12:31:34.033Z,9.63
2023-01-07T12:34:11.808Z,9.50
2023-01-07T12:36:47.779Z,9.87
2023-01-07T12:39:26.961Z,9.98
2023-01-07T12:42:06.092Z,10.11
2023-01-07T12:44:38.841Z,9.73
2023-01-07T12:47:30.987Z,10.00
2023-01-07T12:50:12.347Z,9.84
2023-01-07T12:52:46.993Z,9.49
2023-01-07T12:55:21.803Z,9.52
2023-01-07T12:58:05.309Z,9.83
2023-01-07T13:00:42.041Z,9.70
2023-01-07T13:03:29.766Z,9.65
2023-01-07T13:06:06.544Z,9.58
2023-01-07T13:08:45.013Z,9.40
2023-01-07T13:11:43.182Z,9.75
2023-01-07T13:14:22.333Z,9.50
2023-01-07T13:16:50.756Z,9.91
2023-01-07T13:19:19.274Z,9.93
2023-01-07T13:21:50.428Z,10.01
2023-01-07T13:24:55.191Z,9.90
2023-01-07T13:27:38.910Z,9.57
2023-01-07T13:30:21.127Z,9.82
2023-01-07T13:33:06.632Z,9.96
2023-01-07T13:35:55.457Z,9.59
2023-01-07T13:39:16.175Z,9.87
2023-01-07T13:42:18.702Z,9.79
2023-01-07T13:45:11.686Z,9.63
2023-01-07T13:47:54.092Z,9.80
2023-01-07T13:50:34.636Z,9.70
2023-01-07T13:53:05.932Z,9.64
2023-01-07T13:55:40.862Z,9.47
2023-01-07T13:58:36.831Z,9.62
2023-01-07T14:01:09.446Z,9.50
2023-01-07T14:03:44.815Z,9.88
2023-01-07T14:07:00.965Z,9.77
2023-01-07T14:09:39.795Z,9.92
2023-01-07T14:12:56.540Z,10.07
2023-01-07T14:16:07.647Z,10.07
2023-01-07T14:19:12.098Z,9.74
2023-01-07T14:22:14.329Z,9.79
2023-01-07T14:25:06.208Z,9.50
2023-01-07T14:27:54.471Z,9.39
2023-01-07T14:30:28.254Z,9.36
2023-01-07T14:33:04.505Z,9.34
2023-01-07T14:35:40.508Z,9.35
2023-01-07T14:38:48.138Z,9.47
2023-01-07T14:41:18.370Z,9.29
2023-01-07T14:44:29.087Z,9.13
2023-01-07T14:46:57.674Z,9.21
2023-01-07T14:50:11.869Z,9.04
2023-01-07T14:53:22.237Z,9.21
2023-01-07T14:56:23.284Z,9.01
2023-01-07T14:59:34.068Z,9.04
2023-01-07T15:02:58.993Z,9.12
2023-01-07T15:06:12.016Z,9.26
2023-01-07T15:09:06.768Z,8.99
2023-01-07T15:11:56.079Z,8.87
2023-01-07T15:14:48.656Z,8.92
2023-01-07T15:17:18.249Z,9.05
2023-01-07T15:19:47.020Z,9.04
2023-01-07T15:23:06.735Z,8.86
2023-01-07T15:25:49.473Z,8.45
2023-01-07T15:28:27.019Z,8.75
2023-01-07T15:31:05.259Z,8.61
2023-01-07T15:33:57.376Z,8.56
2023-01-07T15:36:27.166Z,8.71
2023-01-07T15:38:58.870Z,8.72
2023-01-07T15:41:32.480Z,8.25
2023-01-07T15:44:05.433Z,8.19
2023-01-07T15:46:40.038Z,8.43
2023-01-07T15:49:19.226Z,8.48
2023-01-07T15:51:50.757Z,8.70
2023-01-07T15:54:35.112Z,8.27
2023-01-07T15:57:09.440Z,8.50
2023-01-07T15:59:48.027Z,8.32
2023-01-07T16:02:27.997Z,8.27
2023-01-07T16:05:01.041Z,8.03
2023-01-07T16:07:32.966Z,8.05
2023-01-07T16:10:02.301Z,7.94
2023-01-07T16:12:35.238Z,7.70
2023-01-07T16:15:30.550Z,7.77
2023-01-07T16:18:01.313Z,8.05
2023-01-07T16:20:32.441Z,7.49
2023-01-07T16:23:21.400Z,7.70
2023-01-07T16:25:54.847Z,7.49
2023-01-07T16:28:28.647Z,7.60
2023-01-07T16:31:00.216Z,7.64
2023-01-07T16:33:31.313Z,7.54
2023-01-07T16:36:03.113Z,7.37
2023-01-07T16:38:33.799Z,7.15
2023-01-07T16:41:02.280Z,7.54
2023-01-07T16:43:44.541Z,7.45
2023-01-07T16:46:25.995Z,7.46
2023-01-07T16:49:27.375Z,7.06
2023-01-07T16:52:05.877Z,7.22
2023-01-07T16:54:37.656Z,7.17
2023-01-07T16:57:28.384Z,7.15
2023-01-07T16:59:59.452Z,6.87
2023-01-07T17:02:34.845Z,7.05
2023-01-07T17:05:19.205Z,7.20
2023-01-07T17:07:51.838Z,7.10
2023-01-07T17:10:26.199Z,6.92
2023-01-07T17:13:01.461Z,6.96
2023-01-07T17:15:39.421Z,6.97
2023-01-07T17:18:30.186Z,7.11
2023-01-07T17:21:00.734Z,7.04
2023-01-07T17:23:45.739Z,7.00
2023-01-07T17:26:24.240Z,6.94
2023-01-07T17:28:55.594Z,6.87
2023-01-07T17:31:25.338Z,7.06
2023-01-07T17:33:56.306Z,6.97
2023-01-07T17:36:27.322Z,7.14
2023-01-07T17:38:55.681Z,7.20
2023-01-07T17:41:42.463Z,7.14
2023-01-07T17:44:13.052Z,7.00
2023-01-07T17:46:42.377Z,6.83
2023-01-07T17:49:12.842Z,6.98
2023-01-07T17:51:44.662Z,6.75
2023-01-07T17:54:21.255Z,7.02
2023-01-07T17:56:50.884Z,6.66
2023-01-07T17:59:22.416Z,6.76
2023-01-07T18:01:54.742Z,7.01
2023-01-07T18:04:25.846Z,6.98
2023-01-07T18:06:54.256Z,6.72
2023-01-07T18:09:22.635Z,6.75
2023-01-07T18:12:08.415Z,6.74
2023-01-07T18:14:36.927Z,6.74
2023-01-07T18:17:07.493Z,6.63
2023-01-07T18:19:37.425Z,6.57
2023-01-07T18:22:05.945Z,6.56
2023-01-07T18:24:34.787Z,6.36
2023-01-07T18:27:03.108Z,6.62
2023-01-07T18:29:31.770Z,6.57
2023-01-07T18:32:00.223Z,6.41
2023-01-07T18:34:29.264Z,6.55
2023-01-07T18:36:59.074Z,6.50
2023-01-07T18:39:27.697Z,6.63
2023-01-07T18:41:56.557Z,6.23
2023-01-07T18:44:26.065Z,6.56
2023-01-07T18:46:54.524Z,6.61
2023-01-07T18:49:22.935Z,6.47
2023-01-07T18:51:51.609Z,6.40
2023-01-07T18:54:21.741Z,6.93
2023-01-07T18:56:50.154Z,6.85
2023-01-07T18:59:18.792Z,6.87
2023-01-07T19:01:47.299Z,7.17
2023-01-07T19:04:15.842Z,7.11
2023-01-07T19:06:44.274Z,7.16
2023-01-07T19:09:13.971Z,7.03
2023-01-07T19:11:43.793Z,7.36
2023-01-07T19:14:12.829Z,7.27
2023-01-07T19:16:41.464Z,7.23
2023-01-07T19:19:10.106Z,7.26
2023-01-07T19:21:38.822Z,7.43
2023-01-07T19:24:08.429Z,7.16
2023-01-07T19:26:37.073Z,7.43
2023-01-07T19:29:06.850Z,7.46
2023-01-07T19:31:35.580Z,7.59
2023-01-07T19:34:04.779Z,7.36
2023-01-07T19:36:33.802Z,7.54
2023-01-07T19:39:02.285Z,7.50
2023-01-07T19:41:30.866Z,7.48
2023-01-07T19:44:02.191Z,7.27
2023-01-07T19:46:34.410Z,7.44
2023-01-07T19:49:02.971Z,7.60
2023-01-07T19:51:31.765Z,7.61
2023-01-07T19:54:00.123Z,7.41
2023-01-07T19:56:30.290Z,7.55
2023-01-07T19:59:00.025Z,7.42
2023-01-07T20:01:28.917Z,7.27
2023-01-07T20:03:59.948Z,7.50
2023-01-07T20:06:30.824Z,7.38
2023-01-07T20:09:00.544Z,7.46
2023-01-07T20:11:29.096Z,7.41
2023-01-07T20:13:57.477Z,7.29
2023-01-07T20:16:27.729Z,7.45
2023-01-07T20:18:58.166Z,7.30
2023-01-07T20:21:27.832Z,7.68
2023-01-07T20:23:56.535Z,7.22
2023-01-07T20:26:27.202Z,7.37
2023-01-07T20:28:56.362Z,7.55
2023-01-07T20:31:27.648Z,7.53
2023-01-07T20:33:57.788Z,7.58
2023-01-07T20:36:30.883Z,7.44
2023-01-07T20:39:05.304Z,7.45
2023-01-07T20:41:35.507Z,7.53
2023-01-07T20:44:07.609Z,7.74
2023-01-07T20:46:36.377Z,7.77
2023-01-07T20:49:05.879Z,7.80
2023-01-07T20:51:37.434Z,7.58
2023-01-07T20:54:06.061Z,7.82
2023-01-07T20:56:35.032Z,7.53
2023-01-07T20:59:04.821Z,7.24
2023-01-07T21:01:33.359Z,7.34
2023-01-07T21:04:02.557Z,7.63
2023-01-07T21:06:31.599Z,7.38
2023-01-07T21:09:01.415Z,7.79
2023-01-07T21:11:29.930Z,7.92
2023-01-07T21:13:58.295Z,7.84
2023-01-07T21:16:27.574Z,7.71
2023-01-07T21:18:56.236Z,7.72
2023-01-07T21:21:26.118Z,7.74
2023-01-07T21:23:55.300Z,7.78
2023-01-07T21:26:26.135Z,7.90
2023-01-07T21:28:56.702Z,7.87
2023-01-07T21:31:27.372Z,7.90
2023-01-07T21:33:57.720Z,7.71
2023-01-07T21:36:27.877Z,7.89
2023-01-07T21:38:58.484Z,7.93
2023-01-07T21:41:29.615Z,7.93
2023-01-07T21:43:58.112Z,7.91
2023-01-07T21:46:26.679Z,7.71
2023-01-07T21:48:55.849Z,7.68
2023-01-07T21:51:26.466Z,7.77
2023-01-07T21:53:56.799Z,7.40
2023-01-07T21:56:31.364Z,7.54
2023-01-07T21:59:00.332Z,7.75
2023-01-07T22:01:29.636Z,7.78
2023-01-07T22:03:59.851Z,7.62
2023-01-07T22:06:30.791Z,7.73
2023-01-07T22:09:03.808Z,7.49
2023-01-07T22:11:34.434Z,7.40
2023-01-07T22:14:03.448Z,7.39
2023-01-07T22:16:33.531Z,7.66
2023-01-07T22:19:02.788Z,7.48
2023-01-07T22:21:32.597Z,7.93
2023-01-07T22:24:00.965Z,7.80
2023-01-07T22:26:29.439Z,7.84
2023-01-07T22:29:03.334Z,7.67
2023-01-07T22:31:36.465Z,7.80
2023-01-07T22:34:06.788Z,7.39
2023-01-07T22:36:43.784Z,7.68
2023-01-07T22:39:19.261Z,7.68
2023-01-07T22:41:48.800Z,7.59
2023-01-07T22:44:25.989Z,7.92
2023-01-07T22:46:56.528Z,8.00
2023-01-07T22:49:28.619Z,8.05
2023-01-07T22:51:57.861Z,8.05
2023-01-07T22:54:27.641Z,8.03
2023-01-07T22:56:56.631Z,8.25
2023-01-07T22:59:26.437Z,8.20
2023-01-07T23:01:54.903Z,7.93
2023-01-07T23:04:24.242Z,7.91
2023-01-07T23:06:52.715Z,7.82
2023-01-07T23:09:21.397Z,8.31
2023-01-07T23:11:50.586Z,8.17
2023-01-07T23:14:21.094Z,7.73
2023-01-07T23:16:51.952Z,8.13
2023-01-07T23:19:22.147Z,7.97
2023-01-07T23:21:53.517Z,7.85
2023-01-07T23:24:23.185Z,7.90
2023-01-07T23:26:54.065Z,7.73
2023-01-07T23:29:23.163Z,8.11
2023-01-07T23:31:52.993Z,7.88
2023-01-07T23:34:21.875Z,8.19
2023-01-07T23:36:50.512Z,8.19
2023-01-07T23:39:19.178Z,8.29
2023-01-07T23:41:47.519Z,8.16
2023-01-07T23:44:17.404Z,8.28
2023-01-07T23:46:46.951Z,8.21
2023-01-07T23:49:16.701Z,8.16
2023-01-07T23:51:45.084Z,8.00
2023-01-07T23:54:13.749Z,7.83
2023-01-07T23:56:42.152Z,8.16
2023-01-07T23:59:11.297Z,7.99
